Flight Track Log - Related Links

Times and Time Zones

All times are in EDT time to prevent confusion due to time zone crossing. See the DAL2383 flight status page for this flight to view local times or setup timezone preferences in your user account.

Time Position Orientation Groundspeed Altitude Reporting Facility
EDT Latitude Longitude Course Direction KTS MPH feet Rate Location/Type
Mon 11:58:32 AM 39.7167 -86.2667 316° Northwest 165 190 1,300  Level Indianapolis TRACON
Mon 11:59:20 AM 39.7500 -86.2333 38° Northeast 195 224 2,600 1,444 Climbing Indianapolis TRACON
Mon 12:00:20 PM 39.8333 -86.2500 351° North 298 343 3,900 1,946 Climbing Indianapolis TRACON
Mon 12:01:00 PM 40.0515 -86.3954 313° West  Level FlightAware
Mon 12:01:11 PM 39.8756 -86.2806 331° Northwest 293 337 6,200  Level Indianapolis Center
Mon 12:02:00 PM 40.1393 -86.5080 314° West  Level FlightAware
Mon 12:02:13 PM 39.9525 -86.3464 327° Northwest 283 326 9,700  Level Indianapolis Center
Mon 12:03:00 PM 40.2177 -86.6262 316° Northwest  Level FlightAware
Mon 12:03:14 PM 40.0228 -86.4069 327° Northwest 293 337 11,100  Level Indianapolis Center
Mon 12:04:15 PM 40.1150 -86.4714 332° Northwest 368 423 12,700 2,293 Climbing Indianapolis Center
Mon 12:05:17 PM 40.2142 -86.5283 336° Northwest 385 443 15,800 2,508 Climbing Indianapolis Center
Mon 12:06:17 PM 40.3103 -86.5839 336° Northwest 381 438 17,800 1,869 Climbing Chicago Center
Mon 12:07:19 PM 40.4128 -86.6433 336° Northwest 400 460 19,600 1,694 Climbing Chicago Center
Mon 12:08:21 PM 40.5197 -86.7042 337° Northwest 415 478 21,300 1,645 Climbing Chicago Center
Mon 12:09:23 PM 40.6281 -86.7681 336° Northwest 424 488 23,000 1,597 Climbing Chicago Center
Mon 12:10:25 PM 40.7497 -86.8389 336° Northwest 431 496 24,600 1,306 Climbing Chicago Center
Mon 12:11:27 PM 40.8633 -86.9061 336° Northwest 443 510 25,700 677 Climbing Chicago Center
Mon 12:12:29 PM 41.0039 -86.9886 336° Northwest 459 528 26,000 145 Climbing Chicago Center
Mon 12:13:31 PM 41.1247 -87.0608 336° Northwest 471 542 26,000  Level Chicago Center
Mon 12:14:33 PM 41.2467 -87.1336 336° Northwest 478 550 26,000  Level Chicago Center
Mon 12:15:35 PM 41.3661 -87.2042 336° Northwest 477 549 26,000  Level Chicago Center
Mon 12:16:38 PM 41.4881 -87.2775 336° Northwest 479 551 26,000  Level Chicago Center
Mon 12:17:40 PM 41.6333 -87.3650 336° Northwest 480 552 26,000  Level Chicago Center
Mon 12:18:42 PM 41.7519 -87.4386 335° Northwest 478 550 26,000  Level Chicago Center
Mon 12:19:44 PM 41.8717 -87.5097 336° Northwest 473 544 26,000  Level Chicago Center
Mon 12:20:46 PM 41.9933 -87.5825 336° Northwest 479 551 26,000  Level Chicago Center
Mon 12:21:48 PM 42.1161 -87.6583 335° Northwest 484 557 26,000  Level Chicago Center
Mon 12:22:50 PM 42.2633 -87.7494 335° Northwest 485 558 26,000  Level Chicago Center
Mon 12:23:52 PM 42.3733 -87.8167 336° Northwest 485 558 26,000  Level Chicago Center
Mon 12:24:54 PM 42.5197 -87.9081 335° Northwest 484 557 26,000  Level Chicago Center
Mon 12:25:56 PM 42.6419 -87.9856 335° Northwest 484 557 26,000  Level Chicago Center
Mon 12:26:59 PM 42.7633 -88.0617 335° Northwest 483 556 26,000  Level Chicago Center
Mon 12:28:01 PM 42.8847 -88.1383 335° Northwest 482 555 26,000  Level Chicago Center
Mon 12:29:03 PM 43.0072 -88.2153 335° Northwest 482 555 26,000  Level Chicago Center
Mon 12:30:05 PM 43.1242 -88.3031 331° Northwest 480 552 26,000  Level Chicago Center
Mon 12:31:07 PM 43.2267 -88.4717 310° West 477 549 26,000  Level Chicago Center
Mon 12:32:09 PM 43.3100 -88.6150 309° West 472 543 26,000  Level Chicago Center
Mon 12:33:11 PM 43.3947 -88.7614 309° West 476 548 26,000  Level Chicago Center
Mon 12:34:13 PM 43.4786 -88.9050 309° West 477 549 26,000  Level Chicago Center
Mon 12:35:15 PM 43.5611 -89.0492 308° West 477 549 26,000  Level Chicago Center
Mon 12:36:18 PM 43.6408 -89.1875 309° West 467 537 26,000  Level Chicago Center
Mon 12:37:20 PM 43.7203 -89.3275 308° West 463 533 26,000  Level Chicago Center
Mon 12:38:02 PM 43.7836 -89.4403 308° West 464 534 26,000  Level Minneapolis Center
Mon 12:39:04 PM 43.8633 -89.5819 308° West 465 535 26,000  Level Minneapolis Center
Mon 12:40:05 PM 43.9439 -89.7228 308° West 466 536 26,000  Level Minneapolis Center
Mon 12:41:07 PM 44.0244 -89.8667 308° West 469 540 26,000  Level Minneapolis Center
Mon 12:42:09 PM 44.1036 -90.0128 307° West 471 542 26,000  Level Minneapolis Center
Mon 12:43:11 PM 44.2008 -90.1869 308° West 472 543 26,000 -390 Level Minneapolis Center
Mon 12:44:12 PM 44.2803 -90.3319 307° West 473 544 25,200 -927 Descending Minneapolis Center
Mon 12:45:14 PM 44.3600 -90.4772 308° West 473 544 24,100 -581 Descending Minneapolis Center
Mon 12:46:16 PM 44.4392 -90.6206 308° West 471 542 24,000 -48 Descending Minneapolis Center
Mon 12:47:18 PM 44.5167 -90.7642 307° West 469 540 24,000  Level Minneapolis Center
Mon 12:48:20 PM 44.5775 -90.9200 299° West 461 531 24,000  Level Minneapolis Center
Mon 12:49:21 PM 44.6336 -91.0814 296° West 461 531 24,000 -98 Level Minneapolis Center
Mon 12:50:23 PM 44.7014 -91.2747 296° West 461 531 23,800 -532 Descending Minneapolis Center
Mon 12:51:25 PM 44.7578 -91.4364 296° West 461 531 22,900 -1,065 Descending Minneapolis Center
Mon 12:52:27 PM 44.8136 -91.5964 296° West 461 531 21,600 -1,548 Descending Minneapolis Center
Mon 12:53:29 PM 44.8708 -91.7486 298° West 451 519 19,700 -1,561 Descending Minneapolis Center
Mon 12:54:30 PM 44.9689 -91.8367 328° Northwest 425 489 18,400 -2,146 Descending Minneapolis Center
Mon 12:55:32 PM 45.0283 -91.9578 305° West 397 457 15,300 -2,565 Descending Minneapolis Center
Mon 12:56:34 PM 45.0400 -92.1411 275° West 394 453 13,100 -1,984 Descending Minneapolis Center
Mon 12:57:36 PM 45.0486 -92.2919 275° West 388 447 11,200 -1,016 Descending Minneapolis Center
Mon 12:58:38 PM 45.0264 -92.4289 257° West 363 418 11,000 -98 Descending Minneapolis Center
Mon 12:59:39 PM 45.0047 -92.5667 258° West 362 417 11,000  Level Minneapolis Center
Mon 01:00:41 PM 44.9836 -92.7036 258° West 362 417 11,000 -194 Level Minneapolis Center
Mon 01:01:43 PM 44.9569 -92.8664 257° West 360 414 10,600 -581 Descending Minneapolis Center
Mon 01:02:45 PM 44.9378 -92.9878 257° West 325 374 9,800 -1,161 Descending Minneapolis Center
Mon 01:03:47 PM 44.9361 -93.1006 269° West 311 358 8,200 -1,306 Descending Minneapolis Center
Mon 01:04:49 PM 44.9850 -93.2003 305° West 315 362 7,100 -1,024 Descending Minneapolis Center
Mon 01:05:50 PM 45.0308 -93.2956 304° West 299 344 6,100 -537 Descending Minneapolis Center
Mon 01:06:52 PM 45.0833 -93.4019 305° West 283 326 6,000 -435 Descending Minneapolis Center
Mon 01:07:54 PM 45.1267 -93.4892 305° West 275 316 5,200 -919 Descending Minneapolis Center
Mon 01:08:56 PM 45.1503 -93.5875 289° West 278 320 4,100 -581 Descending Minneapolis Center
Mon 01:09:58 PM 45.1008 -93.6375 216° Southwest 228 262 4,000 -48 Descending Minneapolis Center
Mon 01:11:00 PM 45.0622 -93.6150 158° South 163 188 4,000  Level Minneapolis Center
Mon 01:12:02 PM 45.0414 -93.5639 120° Southeast 151 174 4,000  Level Minneapolis Center
Mon 01:13:03 PM 45.0169 -93.5078 122° Southeast 144 166 4,000  Level Minneapolis Center
Mon 01:14:05 PM 44.9969 -93.4608 121° Southeast 142 163 4,000  Level Minneapolis Center
Mon 01:15:07 PM 44.9783 -93.4186 122° Southeast 129 148 4,000 -242 Level Minneapolis Center
Mon 01:16:09 PM 44.9625 -93.3817 121° Southeast 115 132 3,500 -532 Descending Minneapolis Center
Mon 01:17:11 PM 44.9450 -93.3417 122° Southeast 117 135 2,900 -629 Descending Minneapolis Center
Mon 01:18:13 PM 44.9278 -93.3011 121° Southeast 117 135 2,200 -677 Descending Minneapolis Center
Mon 01:19:15 PM 44.9094 -93.2586 121° Southeast 124 143 1,500 -677 Descending Minneapolis Center
Mon 01:21:00 PM 44.8820 -93.2218 129° Southeast  Level Estimated
Mon 01:28:00 PM 44.8820 -93.2218 129° Southeast  Level Estimated

Login

Don't have an account? Register now (free) for customized features, flight alerts, and more!